sensor_id;sensor_type;location;lat;lon;timestamp;pressure;altitude;pressure_sealevel;temperature;humidity
2188;BME280;1100;52.014;8.540;2023-01-30T00:01:36;100088.81;;;0.69;92.44
2188;BME280;1100;52.014;8.540;2023-01-30T00:04:01;100106.84;;;0.70;92.66
2188;BME280;1100;52.014;8.540;2023-01-30T00:06:27;100100.19;;;0.71;92.58
2188;BME280;1100;52.014;8.540;2023-01-30T00:08:52;100113.50;;;0.73;92.77
2188;BME280;1100;52.014;8.540;2023-01-30T00:11:18;100111.97;;;0.76;92.80
2188;BME280;1100;52.014;8.540;2023-01-30T00:13:45;100111.59;;;0.77;92.95
2188;BME280;1100;52.014;8.540;2023-01-30T00:16:11;100121.03;;;0.80;93.03
2188;BME280;1100;52.014;8.540;2023-01-30T00:18:37;100141.38;;;0.82;92.92
2188;BME280;1100;52.014;8.540;2023-01-30T00:21:05;100127.31;;;0.84;92.87
2188;BME280;1100;52.014;8.540;2023-01-30T00:23:32;100129.63;;;0.82;92.98
2188;BME280;1100;52.014;8.540;2023-01-30T00:25:58;100125.78;;;0.86;93.11
2188;BME280;1100;52.014;8.540;2023-01-30T00:28:24;100109.00;;;0.88;92.92
2188;BME280;1100;52.014;8.540;2023-01-30T00:30:50;100109.78;;;0.89;92.88
2188;BME280;1100;52.014;8.540;2023-01-30T00:33:17;100103.16;;;0.90;93.10
2188;BME280;1100;52.014;8.540;2023-01-30T00:35:48;100084.41;;;0.92;93.12
2188;BME280;1100;52.014;8.540;2023-01-30T00:38:14;100087.94;;;0.92;93.17
2188;BME280;1100;52.014;8.540;2023-01-30T00:40:39;100095.03;;;0.97;93.01
2188;BME280;1100;52.014;8.540;2023-01-30T00:43:05;100099.34;;;0.98;93.05
2188;BME280;1100;52.014;8.540;2023-01-30T00:45:51;100081.81;;;1.03;93.16
2188;BME280;1100;52.014;8.540;2023-01-30T00:48:36;100088.06;;;1.03;93.28
2188;BME280;1100;52.014;8.540;2023-01-30T00:51:01;100078.69;;;1.04;93.23
2188;BME280;1100;52.014;8.540;2023-01-30T00:53:27;100077.53;;;1.05;93.30
2188;BME280;1100;52.014;8.540;2023-01-30T00:55:53;100075.56;;;1.06;93.30
2188;BME280;1100;52.014;8.540;2023-01-30T00:58:20;100063.06;;;1.05;93.19
2188;BME280;1100;52.014;8.540;2023-01-30T01:00:45;100061.09;;;1.05;93.51
2188;BME280;1100;52.014;8.540;2023-01-30T01:03:11;100068.16;;;1.06;93.09
2188;BME280;1100;52.014;8.540;2023-01-30T01:05:36;100055.28;;;1.10;93.45
2188;BME280;1100;52.014;8.540;2023-01-30T01:08:02;100081.91;;;1.14;93.59
2188;BME280;1100;52.014;8.540;2023-01-30T01:10:27;100056.53;;;1.17;93.51
2188;BME280;1100;52.014;8.540;2023-01-30T01:12:53;100057.28;;;1.14;93.35
2188;BME280;1100;52.014;8.540;2023-01-30T01:15:19;100053.34;;;1.11;93.57
2188;BME280;1100;52.014;8.540;2023-01-30T01:17:45;100037.63;;;1.04;93.08
2188;BME280;1100;52.014;8.540;2023-01-30T01:20:11;100036.81;;;1.00;93.29
2188;BME280;1100;52.014;8.540;2023-01-30T01:22:37;100032.09;;;0.97;93.46
2188;BME280;1100;52.014;8.540;2023-01-30T01:25:03;100036.34;;;0.94;93.16
2188;BME280;1100;52.014;8.540;2023-01-30T01:27:28;100026.59;;;0.97;93.54
2188;BME280;1100;52.014;8.540;2023-01-30T01:29:54;100032.09;;;0.97;93.69
2188;BME280;1100;52.014;8.540;2023-01-30T01:32:20;100031.72;;;0.98;93.78
2188;BME280;1100;52.014;8.540;2023-01-30T01:34:46;100022.28;;;0.96;93.54
2188;BME280;1100;52.014;8.540;2023-01-30T01:37:11;100007.78;;;0.92;93.61
2188;BME280;1100;52.014;8.540;2023-01-30T01:39:37;100003.88;;;0.93;93.76
2188;BME280;1100;52.014;8.540;2023-01-30T01:42:21;99995.28;;;0.94;93.85
2188;BME280;1100;52.014;8.540;2023-01-30T01:50:27;99982.38;;;0.95;93.65
2188;BME280;1100;52.014;8.540;2023-01-30T01:52:58;99969.13;;;0.97;94.22
2188;BME280;1100;52.014;8.540;2023-01-30T01:55:26;99971.84;;;0.97;93.79
2188;BME280;1100;52.014;8.540;2023-01-30T01:58:04;99966.03;;;1.02;94.20
2188;BME280;1100;52.014;8.540;2023-01-30T02:00:32;99964.88;;;1.03;94.12
2188;BME280;1100;52.014;8.540;2023-01-30T02:03:06;99964.91;;;1.07;94.12
2188;BME280;1100;52.014;8.540;2023-01-30T02:05:37;99953.59;;;1.12;94.37
2188;BME280;1100;52.014;8.540;2023-01-30T02:08:11;99970.47;;;1.14;94.38
2188;BME280;1100;52.014;8.540;2023-01-30T02:10:49;99957.53;;;1.15;94.13
2188;BME280;1100;52.014;8.540;2023-01-30T02:13:17;99953.66;;;1.16;94.19
2188;BME280;1100;52.014;8.540;2023-01-30T02:15:43;99945.44;;;1.19;94.63
2188;BME280;1100;52.014;8.540;2023-01-30T02:18:09;99943.91;;;1.22;94.57
2188;BME280;1100;52.014;8.540;2023-01-30T02:45:08;99857.31;;;1.63;94.79
2188;BME280;1100;52.014;8.540;2023-01-30T02:47:43;99861.25;;;1.65;94.84
2188;BME280;1100;52.014;8.540;2023-01-30T02:50:44;99852.63;;;1.67;95.09
2188;BME280;1100;52.014;8.540;2023-01-30T02:53:11;99845.63;;;1.69;95.14
2188;BME280;1100;52.014;8.540;2023-01-30T02:55:39;99839.75;;;1.74;95.03
2188;BME280;1100;52.014;8.540;2023-01-30T02:58:05;99833.13;;;1.76;94.90
2188;BME280;1100;52.014;8.540;2023-01-30T03:06:14;99796.34;;;1.88;95.49
2188;BME280;1100;52.014;8.540;2023-01-30T03:09:19;99803.00;;;1.90;95.29
2188;BME280;1100;52.014;8.540;2023-01-30T03:12:00;99798.31;;;1.91;95.21
2188;BME280;1100;52.014;8.540;2023-01-30T03:14:32;99803.41;;;1.92;95.47
2188;BME280;1100;52.014;8.540;2023-01-30T03:17:03;99814.78;;;1.94;95.42
2188;BME280;1100;52.014;8.540;2023-01-30T03:19:30;99809.28;;;1.98;95.53
2188;BME280;1100;52.014;8.540;2023-01-30T03:21:55;99815.56;;;1.98;95.31
2188;BME280;1100;52.014;8.540;2023-01-30T03:24:21;99812.44;;;2.00;95.47
2188;BME280;1100;52.014;8.540;2023-01-30T03:26:57;99811.25;;;2.01;95.52
2188;BME280;1100;52.014;8.540;2023-01-30T03:29:24;99808.53;;;2.05;95.29
2188;BME280;1100;52.014;8.540;2023-01-30T03:31:49;99808.16;;;2.06;95.70
2188;BME280;1100;52.014;8.540;2023-01-30T03:34:15;99802.69;;;2.10;95.74
2188;BME280;1100;52.014;8.540;2023-01-30T03:36:40;99795.22;;;2.10;95.78
2188;BME280;1100;52.014;8.540;2023-01-30T03:39:05;99781.16;;;2.16;95.75
2188;BME280;1100;52.014;8.540;2023-01-30T03:41:31;99776.06;;;2.14;95.77
2188;BME280;1100;52.014;8.540;2023-01-30T03:43:56;99780.34;;;2.15;95.77
2188;BME280;1100;52.014;8.540;2023-01-30T03:46:22;99779.19;;;2.13;95.54
2188;BME280;1100;52.014;8.540;2023-01-30T03:48:47;99776.44;;;2.13;95.94
2188;BME280;1100;52.014;8.540;2023-01-30T03:51:12;99765.09;;;2.14;95.62
2188;BME280;1100;52.014;8.540;2023-01-30T03:53:37;99760.38;;;2.15;95.96
2188;BME280;1100;52.014;8.540;2023-01-30T03:56:03;99758.41;;;2.15;95.54
2188;BME280;1100;52.014;8.540;2023-01-30T03:58:28;99771.34;;;2.15;95.77
2188;BME280;1100;52.014;8.540;2023-01-30T04:00:55;99758.03;;;2.17;95.73
2188;BME280;1100;52.014;8.540;2023-01-30T04:03:22;99769.78;;;2.17;95.72
2188;BME280;1100;52.014;8.540;2023-01-30T04:05:47;99756.47;;;2.19;95.76
2188;BME280;1100;52.014;8.540;2023-01-30T04:08:13;99753.34;;;2.21;96.06
2188;BME280;1100;52.014;8.540;2023-01-30T04:10:38;99757.66;;;2.22;95.85
2188;BME280;1100;52.014;8.540;2023-01-30T04:13:04;99747.09;;;2.24;96.23
2188;BME280;1100;52.014;8.540;2023-01-30T04:15:29;99754.13;;;2.25;96.18
2188;BME280;1100;52.014;8.540;2023-01-30T04:17:54;99759.59;;;2.25;95.90
2188;BME280;1100;52.014;8.540;2023-01-30T04:20:20;99743.56;;;2.27;95.91
2188;BME280;1100;52.014;8.540;2023-01-30T04:22:45;99746.69;;;2.26;95.86
2188;BME280;1100;52.014;8.540;2023-01-30T04:25:10;99751.38;;;2.25;96.53
2188;BME280;1100;52.014;8.540;2023-01-30T04:27:36;99756.50;;;2.30;96.30
2188;BME280;1100;52.014;8.540;2023-01-30T04:30:02;99752.94;;;2.30;96.25
2188;BME280;1100;52.014;8.540;2023-01-30T04:32:30;99756.88;;;2.32;96.38
2188;BME280;1100;52.014;8.540;2023-01-30T04:34:56;99749.03;;;2.34;96.09
2188;BME280;1100;52.014;8.540;2023-01-30T04:37:21;99740.41;;;2.36;96.36
2188;BME280;1100;52.014;8.540;2023-01-30T04:39:46;99757.28;;;2.38;96.03
2188;BME280;1100;52.014;8.540;2023-01-30T04:42:12;99761.59;;;2.43;96.60
2188;BME280;1100;52.014;8.540;2023-01-30T04:44:37;99747.47;;;2.41;96.43
2188;BME280;1100;52.014;8.540;2023-01-30T04:47:02;99747.88;;;2.43;96.11
2188;BME280;1100;52.014;8.540;2023-01-30T04:49:28;99738.47;;;2.44;96.11
2188;BME280;1100;52.014;8.540;2023-01-30T04:51:53;99738.47;;;2.47;96.23
2188;BME280;1100;52.014;8.540;2023-01-30T04:54:18;99742.38;;;2.50;96.67
2188;BME280;1100;52.014;8.540;2023-01-30T04:56:44;99732.97;;;2.55;96.44
2188;BME280;1100;52.014;8.540;2023-01-30T04:59:09;99719.66;;;2.57;96.26
2188;BME280;1100;52.014;8.540;2023-01-30T05:01:37;99727.50;;;2.58;96.12
2188;BME280;1100;52.014;8.540;2023-01-30T05:04:03;99717.69;;;2.61;96.55
2188;BME280;1100;52.014;8.540;2023-01-30T05:06:30;99713.34;;;2.67;96.76
2188;BME280;1100;52.014;8.540;2023-01-30T05:08:56;99709.44;;;2.72;96.85
2188;BME280;1100;52.014;8.540;2023-01-30T05:11:22;99703.94;;;2.76;96.20
2188;BME280;1100;52.014;8.540;2023-01-30T05:13:48;99698.06;;;2.77;96.74
2188;BME280;1100;52.014;8.540;2023-01-30T05:16:15;99696.47;;;2.83;96.89
2188;BME280;1100;52.014;8.540;2023-01-30T05:18:41;99690.19;;;2.86;96.80
2188;BME280;1100;52.014;8.540;2023-01-30T05:21:11;99694.91;;;2.90;96.81
2188;BME280;1100;52.014;8.540;2023-01-30T05:23:37;99681.94;;;2.97;96.69
2188;BME280;1100;52.014;8.540;2023-01-30T05:26:03;99687.41;;;3.01;96.81
2188;BME280;1100;52.014;8.540;2023-01-30T05:28:33;99703.91;;;3.01;96.52
2188;BME280;1100;52.014;8.540;2023-01-30T05:31:04;99690.94;;;3.02;96.47
2188;BME280;1100;52.014;8.540;2023-01-30T05:33:29;99685.84;;;3.04;96.91
2188;BME280;1100;52.014;8.540;2023-01-30T05:35:55;99693.69;;;3.09;96.86
2188;BME280;1100;52.014;8.540;2023-01-30T05:38:22;99701.13;;;3.08;96.92
2188;BME280;1100;52.014;8.540;2023-01-30T05:40:59;99710.91;;;3.09;96.48
2188;BME280;1100;52.014;8.540;2023-01-30T05:43:28;99713.25;;;3.11;96.60
2188;BME280;1100;52.014;8.540;2023-01-30T05:45:55;99707.38;;;3.13;96.75
2188;BME280;1100;52.014;8.540;2023-01-30T05:48:21;99710.50;;;3.15;96.84
2188;BME280;1100;52.014;8.540;2023-01-30T05:50:49;99705.03;;;3.18;97.19
2188;BME280;1100;52.014;8.540;2023-01-30T05:53:15;99712.47;;;3.18;97.00
2188;BME280;1100;52.014;8.540;2023-01-30T05:55:40;99706.97;;;3.18;96.80
2188;BME280;1100;52.014;8.540;2023-01-30T05:58:09;99722.66;;;3.17;96.71
2188;BME280;1100;52.014;8.540;2023-01-30T06:00:35;99708.13;;;3.20;97.10
2188;BME280;1100;52.014;8.540;2023-01-30T06:03:00;99710.47;;;3.22;97.12
2188;BME280;1100;52.014;8.540;2023-01-30T06:05:26;99732.09;;;3.20;96.58
2188;BME280;1100;52.014;8.540;2023-01-30T06:07:51;99735.22;;;3.22;97.16
2188;BME280;1100;52.014;8.540;2023-01-30T06:10:16;99719.91;;;3.24;96.93
2188;BME280;1100;52.014;8.540;2023-01-30T06:12:42;99729.72;;;3.26;96.75
2188;BME280;1100;52.014;8.540;2023-01-30T06:15:07;99723.81;;;3.27;97.11
2188;BME280;1100;52.014;8.540;2023-01-30T06:17:33;99743.81;;;3.31;96.83
2188;BME280;1100;52.014;8.540;2023-01-30T06:20:02;99716.34;;;3.35;97.10
2188;BME280;1100;52.014;8.540;2023-01-30T06:22:28;99726.53;;;3.34;97.16
2188;BME280;1100;52.014;8.540;2023-01-30T06:24:53;99729.28;;;3.34;97.01
2188;BME280;1100;52.014;8.540;2023-01-30T06:27:18;99731.22;;;3.38;97.04
2188;BME280;1100;52.014;8.540;2023-01-30T06:29:44;99731.22;;;3.38;96.97
2188;BME280;1100;52.014;8.540;2023-01-30T06:32:09;99735.56;;;3.39;96.88
2188;BME280;1100;52.014;8.540;2023-01-30T06:34:34;99731.22;;;3.41;97.25
2188;BME280;1100;52.014;8.540;2023-01-30T06:37:00;99725.72;;;3.38;97.07
2188;BME280;1100;52.014;8.540;2023-01-30T06:39:25;99728.88;;;3.36;96.88
2188;BME280;1100;52.014;8.540;2023-01-30T06:41:50;99741.41;;;3.41;97.03
2188;BME280;1100;52.014;8.540;2023-01-30T06:44:17;99744.97;;;3.41;97.15
2188;BME280;1100;52.014;8.540;2023-01-30T06:46:42;99750.47;;;3.45;97.21
2188;BME280;1100;52.014;8.540;2023-01-30T06:49:07;99743.75;;;3.49;97.27
2188;BME280;1100;52.014;8.540;2023-01-30T06:51:32;99731.19;;;3.48;97.15
2188;BME280;1100;52.014;8.540;2023-01-30T06:53:58;99740.63;;;3.47;97.32
2188;BME280;1100;52.014;8.540;2023-01-30T06:56:26;99733.94;;;3.48;97.21
2188;BME280;1100;52.014;8.540;2023-01-30T06:58:51;99734.72;;;3.49;97.11
2188;BME280;1100;52.014;8.540;2023-01-30T07:01:17;99747.28;;;3.50;96.94
2188;BME280;1100;52.014;8.540;2023-01-30T07:03:43;99733.16;;;3.48;96.71
2188;BME280;1100;52.014;8.540;2023-01-30T07:06:09;99735.13;;;3.51;97.32
2188;BME280;1100;52.014;8.540;2023-01-30T07:08:34;99740.22;;;3.53;97.12
2188;BME280;1100;52.014;8.540;2023-01-30T07:10:59;99738.22;;;3.53;97.16
2188;BME280;1100;52.014;8.540;2023-01-30T07:13:25;99742.16;;;3.52;97.24
2188;BME280;1100;52.014;8.540;2023-01-30T07:15:50;99741.38;;;3.55;97.38
2188;BME280;1100;52.014;8.540;2023-01-30T07:18:16;99739.41;;;3.56;97.07
2188;BME280;1100;52.014;8.540;2023-01-30T07:20:45;99735.88;;;3.55;97.35
2188;BME280;1100;52.014;8.540;2023-01-30T07:23:10;99725.63;;;3.59;97.34
2188;BME280;1100;52.014;8.540;2023-01-30T07:25:36;99740.16;;;3.64;97.17
2188;BME280;1100;52.014;8.540;2023-01-30T07:28:01;99724.84;;;3.66;97.75
2188;BME280;1100;52.014;8.540;2023-01-30T07:30:30;99740.13;;;3.71;97.58
2188;BME280;1100;52.014;8.540;2023-01-30T07:32:57;99756.63;;;3.74;97.91
2188;BME280;1100;52.014;8.540;2023-01-30T07:35:24;99751.88;;;3.75;97.70
2188;BME280;1100;52.014;8.540;2023-01-30T07:37:50;99754.63;;;3.75;97.24
2188;BME280;1100;52.014;8.540;2023-01-30T07:40:17;99762.50;;;3.73;97.38
2188;BME280;1100;52.014;8.540;2023-01-30T07:42:42;99764.88;;;3.74;97.56
2188;BME280;1100;52.014;8.540;2023-01-30T07:45:08;99765.63;;;3.75;97.43
2188;BME280;1100;52.014;8.540;2023-01-30T07:47:34;99767.63;;;3.71;97.00
2188;BME280;1100;52.014;8.540;2023-01-30T07:49:59;99771.97;;;3.68;96.97
2188;BME280;1100;52.014;8.540;2023-01-30T07:52:24;99767.25;;;3.65;96.91
2188;BME280;1100;52.014;8.540;2023-01-30T07:54:50;99774.31;;;3.63;97.08
2188;BME280;1100;52.014;8.540;2023-01-30T07:57:15;99769.22;;;3.65;96.65
2188;BME280;1100;52.014;8.540;2023-01-30T07:59:40;99771.16;;;3.71;97.05
2188;BME280;1100;52.014;8.540;2023-01-30T08:02:08;99774.66;;;3.79;97.08
2188;BME280;1100;52.014;8.540;2023-01-30T08:04:34;99772.25;;;3.85;96.58
2188;BME280;1100;52.014;8.540;2023-01-30T08:06:59;99775.81;;;3.85;96.83
2188;BME280;1100;52.014;8.540;2023-01-30T08:09:24;99785.22;;;3.84;96.47
2188;BME280;1100;52.014;8.540;2023-01-30T08:11:50;99796.63;;;3.86;96.55
2188;BME280;1100;52.014;8.540;2023-01-30T08:14:15;99781.72;;;3.84;96.15
2188;BME280;1100;52.014;8.540;2023-01-30T08:16:41;99780.91;;;3.83;96.19
2188;BME280;1100;52.014;8.540;2023-01-30T08:19:06;99780.13;;;3.86;96.37
2188;BME280;1100;52.014;8.540;2023-01-30T08:21:31;99779.31;;;3.86;96.24
2188;BME280;1100;52.014;8.540;2023-01-30T08:23:57;99780.13;;;3.83;96.32
2188;BME280;1100;52.014;8.540;2023-01-30T08:26:25;99763.25;;;3.81;96.35
2188;BME280;1100;52.014;8.540;2023-01-30T08:28:53;99781.25;;;3.89;96.13
2188;BME280;1100;52.014;8.540;2023-01-30T08:31:20;99781.19;;;4.04;96.12
2188;BME280;1100;52.014;8.540;2023-01-30T08:33:46;99782.38;;;4.06;96.22
2188;BME280;1100;52.014;8.540;2023-01-30T08:36:11;99778.84;;;4.02;96.65
2188;BME280;1100;52.014;8.540;2023-01-30T08:38:36;99782.00;;;3.97;96.31
2188;BME280;1100;52.014;8.540;2023-01-30T08:41:05;99779.31;;;3.93;96.08
2188;BME280;1100;52.014;8.540;2023-01-30T08:43:33;99789.13;;;3.91;96.40
2188;BME280;1100;52.014;8.540;2023-01-30T08:45:58;99790.72;;;3.92;96.16
2188;BME280;1100;52.014;8.540;2023-01-30T08:48:24;99791.09;;;3.90;96.22
2188;BME280;1100;52.014;8.540;2023-01-30T08:50:53;99798.56;;;3.90;96.17
2188;BME280;1100;52.014;8.540;2023-01-30T08:53:19;99802.09;;;3.90;96.18
2188;BME280;1100;52.014;8.540;2023-01-30T08:55:45;99798.94;;;3.92;96.54
2188;BME280;1100;52.014;8.540;2023-01-30T08:58:10;99802.50;;;3.89;96.33
2188;BME280;1100;52.014;8.540;2023-01-30T09:00:36;99804.84;;;3.86;96.36
2188;BME280;1100;52.014;8.540;2023-01-30T09:03:03;99802.50;;;3.85;96.41
2188;BME280;1100;52.014;8.540;2023-01-30T09:05:28;99802.13;;;3.83;96.32
2188;BME280;1100;52.014;8.540;2023-01-30T09:07:54;99801.72;;;3.84;96.05
2188;BME280;1100;52.014;8.540;2023-01-30T09:10:20;99796.22;;;3.84;96.15
2188;BME280;1100;52.014;8.540;2023-01-30T09:12:46;99800.91;;;3.88;95.83
2188;BME280;1100;52.014;8.540;2023-01-30T09:15:12;99805.25;;;3.89;96.28
2188;BME280;1100;52.014;8.540;2023-01-30T09:17:37;99804.06;;;3.90;96.29
2188;BME280;1100;52.014;8.540;2023-01-30T09:20:06;99804.84;;;3.90;96.41
2188;BME280;1100;52.014;8.540;2023-01-30T09:22:34;99808.38;;;3.91;95.95
2188;BME280;1100;52.014;8.540;2023-01-30T09:24:59;99804.81;;;3.94;95.82
2188;BME280;1100;52.014;8.540;2023-01-30T09:27:25;99804.78;;;4.05;95.77
2188;BME280;1100;52.014;8.540;2023-01-30T09:29:51;99800.03;;;4.09;95.84
2188;BME280;1100;52.014;8.540;2023-01-30T09:32:16;99828.34;;;4.09;95.66
2188;BME280;1100;52.014;8.540;2023-01-30T09:34:41;99820.09;;;4.06;95.65
2188;BME280;1100;52.014;8.540;2023-01-30T09:37:07;99811.84;;;4.02;95.67
2188;BME280;1100;52.014;8.540;2023-01-30T09:39:32;99808.75;;;4.00;95.61
2188;BME280;1100;52.014;8.540;2023-01-30T09:56:12;99820.97;;;3.88;95.12
2188;BME280;1100;52.014;8.540;2023-01-30T10:01:20;99814.28;;;3.89;95.19
2188;BME280;1100;52.014;8.540;2023-01-30T10:04:04;99832.31;;;3.94;95.61
2188;BME280;1100;52.014;8.540;2023-01-30T10:06:35;99819.34;;;3.98;94.90
2188;BME280;1100;52.014;8.540;2023-01-30T10:09:11;99808.34;;;4.02;94.92
2188;BME280;1100;52.014;8.540;2023-01-30T10:14:36;99818.16;;;3.99;95.10
2188;BME280;1100;52.014;8.540;2023-01-30T10:19:48;99823.72;;;3.84;94.87
2188;BME280;1100;52.014;8.540;2023-01-30T10:27:29;99825.78;;;3.55;94.62
2188;BME280;1100;52.014;8.540;2023-01-30T10:30:01;99831.72;;;3.46;94.65
2188;BME280;1100;52.014;8.540;2023-01-30T10:35:04;99829.00;;;3.24;94.02
2188;BME280;1100;52.014;8.540;2023-01-30T10:37:34;99808.22;;;3.16;94.17
2188;BME280;1100;52.014;8.540;2023-01-30T10:42:42;99815.66;;;3.19;94.47
2188;BME280;1100;52.014;8.540;2023-01-30T10:45:16;99810.56;;;3.21;94.68
2188;BME280;1100;52.014;8.540;2023-01-30T10:47:51;99812.13;;;3.26;94.80
2188;BME280;1100;52.014;8.540;2023-01-30T10:50:51;99814.47;;;3.34;95.08
2188;BME280;1100;52.014;8.540;2023-01-30T10:56:07;99814.47;;;3.42;94.99
2188;BME280;1100;52.014;8.540;2023-01-30T10:58:57;99818.38;;;3.41;95.27
2188;BME280;1100;52.014;8.540;2023-01-30T11:01:35;99832.91;;;3.41;94.62
2188;BME280;1100;52.014;8.540;2023-01-30T11:04:03;99835.66;;;3.38;94.82
2188;BME280;1100;52.014;8.540;2023-01-30T11:06:32;99811.31;;;3.36;94.44
2188;BME280;1100;52.014;8.540;2023-01-30T11:08:58;99831.72;;;3.42;94.67
2188;BME280;1100;52.014;8.540;2023-01-30T11:14:10;99808.53;;;3.54;94.78
2188;BME280;1100;52.014;8.540;2023-01-30T11:16:54;99819.09;;;3.59;94.76
2188;BME280;1100;52.014;8.540;2023-01-30T11:19:29;99807.31;;;3.63;95.14
2188;BME280;1100;52.014;8.540;2023-01-30T11:21:59;99798.25;;;3.66;94.70
2188;BME280;1100;52.014;8.540;2023-01-30T11:24:39;99807.31;;;3.70;94.94
2188;BME280;1100;52.014;8.540;2023-01-30T11:27:38;99795.91;;;3.71;94.68
2188;BME280;1100;52.014;8.540;2023-01-30T11:32:28;99792.41;;;3.64;94.39
2188;BME280;1100;52.014;8.540;2023-01-30T11:35:10;99795.94;;;3.57;94.26
2188;BME280;1100;52.014;8.540;2023-01-30T11:37:43;99791.22;;;3.65;94.51
2188;BME280;1100;52.014;8.540;2023-01-30T11:42:48;99787.63;;;3.79;94.69
2188;BME280;1100;52.014;8.540;2023-01-30T11:45:16;99776.16;;;3.88;94.71
2188;BME280;1100;52.014;8.540;2023-01-30T11:47:49;99780.50;;;3.89;94.37
2188;BME280;1100;52.014;8.540;2023-01-30T11:50:17;99785.19;;;3.92;94.31
2188;BME280;1100;52.014;8.540;2023-01-30T11:52:44;99791.84;;;3.94;94.45
2188;BME280;1100;52.014;8.540;2023-01-30T11:55:13;99786.75;;;4.00;94.47
2188;BME280;1100;52.014;8.540;2023-01-30T11:57:46;99791.44;;;4.03;94.30
2188;BME280;1100;52.014;8.540;2023-01-30T12:00:18;99772.94;;;4.07;94.43
2188;BME280;1100;52.014;8.540;2023-01-30T12:02:44;99765.03;;;4.17;94.15
2188;BME280;1100;52.014;8.540;2023-01-30T12:07:43;99774.34;;;4.30;93.82
2188;BME280;1100;52.014;8.540;2023-01-30T12:12:54;99762.84;;;4.46;93.62
2188;BME280;1100;52.014;8.540;2023-01-30T12:15:22;99780.84;;;4.58;93.65
2188;BME280;1100;52.014;8.540;2023-01-30T12:18:06;99768.16;;;4.72;93.13
2188;BME280;1100;52.014;8.540;2023-01-30T12:26:46;99768.00;;;4.86;92.92
2188;BME280;1100;52.014;8.540;2023-01-30T12:29:27;99757.00;;;4.86;92.05
2188;BME280;1100;52.014;8.540;2023-01-30T12:32:13;99766.84;;;4.88;92.70
2188;BME280;1100;52.014;8.540;2023-01-30T12:34:40;99770.44;;;4.81;92.10
2188;BME280;1100;52.014;8.540;2023-01-30T12:38:14;99792.94;;;4.72;92.28
2188;BME280;1100;52.014;8.540;2023-01-30T12:45:28;99791.59;;;4.42;92.25
2188;BME280;1100;52.014;8.540;2023-01-30T12:50:26;99842.47;;;4.11;91.01
2188;BME280;1100;52.014;8.540;2023-01-30T12:53:01;99843.34;;;3.90;91.19
2188;BME280;1100;52.014;8.540;2023-01-30T12:58:28;99847.38;;;3.56;91.69
2188;BME280;1100;52.014;8.540;2023-01-30T13:04:24;99842.31;;;3.33;91.59
2188;BME280;1100;52.014;8.540;2023-01-30T13:10:33;99845.91;;;3.04;91.33
2188;BME280;1100;52.014;8.540;2023-01-30T13:13:19;99841.56;;;3.18;90.91
2188;BME280;1100;52.014;8.540;2023-01-30T13:18:54;99846.47;;;3.92;91.47
2188;BME280;1100;52.014;8.540;2023-01-30T13:21:33;99848.81;;;3.97;91.28
2188;BME280;1100;52.014;8.540;2023-01-30T13:24:22;99856.72;;;3.92;91.59
2188;BME280;1100;52.014;8.540;2023-01-30T13:26:49;99843.75;;;3.89;91.21
2188;BME280;1100;52.014;8.540;2023-01-30T13:29:22;99826.81;;;3.94;91.48
2188;BME280;1100;52.014;8.540;2023-01-30T13:31:55;99848.06;;;3.90;91.82
2188;BME280;1100;52.014;8.540;2023-01-30T13:34:30;99863.38;;;3.91;92.02
2188;BME280;1100;52.014;8.540;2023-01-30T13:37:13;99873.97;;;3.96;91.95
2188;BME280;1100;52.014;8.540;2023-01-30T13:42:27;99881.03;;;3.97;92.37
2188;BME280;1100;52.014;8.540;2023-01-30T13:44:54;99885.69;;;4.15;92.13
2188;BME280;1100;52.014;8.540;2023-01-30T13:55:59;99916.34;;;4.13;91.25
2188;BME280;1100;52.014;8.540;2023-01-30T13:58:42;99917.84;;;4.36;90.67
2188;BME280;1100;52.014;8.540;2023-01-30T14:01:11;99910.78;;;4.28;90.92
2188;BME280;1100;52.014;8.540;2023-01-30T14:03:38;99914.75;;;4.23;90.80
2188;BME280;1100;52.014;8.540;2023-01-30T14:08:49;99915.50;;;4.31;90.73
2188;BME280;1100;52.014;8.540;2023-01-30T14:11:26;99918.69;;;4.22;90.99
2188;BME280;1100;52.014;8.540;2023-01-30T14:14:05;99939.91;;;4.18;90.88
2188;BME280;1100;52.014;8.540;2023-01-30T14:16:41;99919.38;;;4.41;90.52
2188;BME280;1100;52.014;8.540;2023-01-30T14:21:56;99935.09;;;4.44;90.86
2188;BME280;1100;52.014;8.540;2023-01-30T14:24:22;99959.78;;;4.66;90.15
2188;BME280;1100;52.014;8.540;2023-01-30T14:37:45;99983.69;;;6.59;90.64
2188;BME280;1100;52.014;8.540;2023-01-30T14:51:16;100010.47;;;5.85;88.95
2188;BME280;1100;52.014;8.540;2023-01-30T14:53:57;100020.97;;;5.56;88.92
2188;BME280;1100;52.014;8.540;2023-01-30T15:02:26;100036.06;;;4.69;89.30
2188;BME280;1100;52.014;8.540;2023-01-30T15:07:42;100057.75;;;4.52;89.82
2188;BME280;1100;52.014;8.540;2023-01-30T15:15:44;100073.53;;;4.41;89.89
2188;BME280;1100;52.014;8.540;2023-01-30T15:18:59;100086.47;;;4.36;90.35
2188;BME280;1100;52.014;8.540;2023-01-30T15:21:18;100090.06;;;4.30;90.10
2188;BME280;1100;52.014;8.540;2023-01-30T15:29:28;100105.41;;;4.23;90.34
2188;BME280;1100;52.014;8.540;2023-01-30T15:31:58;100105.78;;;4.22;90.32
2188;BME280;1100;52.014;8.540;2023-01-30T15:34:27;100112.47;;;4.21;90.37
2188;BME280;1100;52.014;8.540;2023-01-30T15:36:56;100110.09;;;4.19;90.48
2188;BME280;1100;52.014;8.540;2023-01-30T15:39:23;100120.34;;;4.15;90.31
2188;BME280;1100;52.014;8.540;2023-01-30T15:41:51;100129.75;;;4.10;90.33
2188;BME280;1100;52.014;8.540;2023-01-30T15:44:35;100135.66;;;4.09;90.28
2188;BME280;1100;52.014;8.540;2023-01-30T15:52:20;100145.88;;;4.01;90.60
2188;BME280;1100;52.014;8.540;2023-01-30T15:54:50;100162.38;;;3.97;90.39
2188;BME280;1100;52.014;8.540;2023-01-30T15:57:23;100166.31;;;3.96;90.28
2188;BME280;1100;52.014;8.540;2023-01-30T15:59:52;100167.47;;;3.99;90.59
2188;BME280;1100;52.014;8.540;2023-01-30T16:02:26;100170.22;;;3.99;90.41
2188;BME280;1100;52.014;8.540;2023-01-30T16:05:25;100182.81;;;4.00;90.38
2188;BME280;1100;52.014;8.540;2023-01-30T16:07:53;100183.59;;;3.97;90.32
2188;BME280;1100;52.014;8.540;2023-01-30T16:10:24;100182.81;;;3.96;90.61
2188;BME280;1100;52.014;8.540;2023-01-30T16:12:51;100182.00;;;3.96;90.49
2188;BME280;1100;52.014;8.540;2023-01-30T16:18:00;100192.22;;;3.95;90.86
2188;BME280;1100;52.014;8.540;2023-01-30T16:20:27;100192.22;;;3.95;90.45
2188;BME280;1100;52.014;8.540;2023-01-30T16:22:53;100202.09;;;4.00;91.04
2188;BME280;1100;52.014;8.540;2023-01-30T16:25:22;100214.28;;;4.06;90.92
2188;BME280;1100;52.014;8.540;2023-01-30T16:27:48;100222.13;;;4.11;90.77
2188;BME280;1100;52.014;8.540;2023-01-30T16:30:24;100221.75;;;4.09;90.98
2188;BME280;1100;52.014;8.540;2023-01-30T16:32:52;100227.25;;;4.09;90.97
2188;BME280;1100;52.014;8.540;2023-01-30T16:37:54;100243.34;;;4.15;90.89
2188;BME280;1100;52.014;8.540;2023-01-30T16:43:17;100241.00;;;4.24;90.70